sensor_id;sensor_type;location;lat;lon;timestamp;P1;durP1;ratioP1;P2;durP2;ratioP2
10851;SDS011;5479;52.046;6.314;2023-03-23T00:01:07;8.43;;;4.63;;
10851;SDS011;5479;52.046;6.314;2023-03-23T00:03:40;6.93;;;4.20;;
10851;SDS011;5479;52.046;6.314;2023-03-23T00:06:09;8.87;;;4.67;;
10851;SDS011;5479;52.046;6.314;2023-03-23T00:08:43;7.63;;;4.63;;
10851;SDS011;5479;52.046;6.314;2023-03-23T00:11:12;6.60;;;4.40;;
10851;SDS011;5479;52.046;6.314;2023-03-23T00:13:42;8.33;;;4.60;;
10851;SDS011;5479;52.046;6.314;2023-03-23T00:16:10;7.13;;;4.23;;
10851;SDS011;5479;52.046;6.314;2023-03-23T00:18:46;7.53;;;4.10;;
10851;SDS011;5479;52.046;6.314;2023-03-23T00:21:16;7.67;;;4.43;;
10851;SDS011;5479;52.046;6.314;2023-03-23T00:23:43;7.07;;;4.03;;
10851;SDS011;5479;52.046;6.314;2023-03-23T00:26:12;8.00;;;4.50;;
10851;SDS011;5479;52.046;6.314;2023-03-23T00:28:40;9.37;;;4.20;;
10851;SDS011;5479;52.046;6.314;2023-03-23T00:31:08;7.23;;;4.07;;
10851;SDS011;5479;52.046;6.314;2023-03-23T00:33:37;9.00;;;4.27;;
10851;SDS011;5479;52.046;6.314;2023-03-23T00:36:09;7.60;;;4.27;;
10851;SDS011;5479;52.046;6.314;2023-03-23T00:38:38;6.40;;;3.63;;
10851;SDS011;5479;52.046;6.314;2023-03-23T00:41:08;9.40;;;4.77;;
10851;SDS011;5479;52.046;6.314;2023-03-23T00:43:37;7.23;;;3.90;;
10851;SDS011;5479;52.046;6.314;2023-03-23T00:46:05;6.80;;;3.93;;
10851;SDS011;5479;52.046;6.314;2023-03-23T00:48:36;6.33;;;3.73;;
10851;SDS011;5479;52.046;6.314;2023-03-23T00:51:08;6.77;;;4.00;;
10851;SDS011;5479;52.046;6.314;2023-03-23T00:53:36;5.37;;;3.83;;
10851;SDS011;5479;52.046;6.314;2023-03-23T00:56:05;6.10;;;3.93;;
10851;SDS011;5479;52.046;6.314;2023-03-23T00:58:35;7.87;;;3.90;;
10851;SDS011;5479;52.046;6.314;2023-03-23T01:01:03;6.57;;;3.67;;
10851;SDS011;5479;52.046;6.314;2023-03-23T01:03:32;5.27;;;3.50;;
10851;SDS011;5479;52.046;6.314;2023-03-23T01:06:04;6.60;;;3.80;;
10851;SDS011;5479;52.046;6.314;2023-03-23T01:08:36;6.00;;;3.43;;
10851;SDS011;5479;52.046;6.314;2023-03-23T01:11:06;7.33;;;3.83;;
10851;SDS011;5479;52.046;6.314;2023-03-23T01:13:37;6.30;;;3.90;;
10851;SDS011;5479;52.046;6.314;2023-03-23T01:16:05;5.63;;;3.30;;
10851;SDS011;5479;52.046;6.314;2023-03-23T01:18:33;7.20;;;3.93;;
10851;SDS011;5479;52.046;6.314;2023-03-23T01:21:05;6.03;;;4.07;;
10851;SDS011;5479;52.046;6.314;2023-03-23T01:23:35;6.03;;;4.00;;
10851;SDS011;5479;52.046;6.314;2023-03-23T01:26:05;6.77;;;3.73;;
10851;SDS011;5479;52.046;6.314;2023-03-23T01:28:34;6.60;;;3.97;;
10851;SDS011;5479;52.046;6.314;2023-03-23T01:31:05;6.60;;;3.77;;
10851;SDS011;5479;52.046;6.314;2023-03-23T01:33:34;6.30;;;3.60;;
10851;SDS011;5479;52.046;6.314;2023-03-23T01:36:03;8.67;;;4.23;;
10851;SDS011;5479;52.046;6.314;2023-03-23T01:38:34;7.03;;;4.03;;
10851;SDS011;5479;52.046;6.314;2023-03-23T01:41:03;6.87;;;3.50;;
10851;SDS011;5479;52.046;6.314;2023-03-23T01:43:31;6.40;;;4.40;;
10851;SDS011;5479;52.046;6.314;2023-03-23T01:45:59;6.67;;;4.00;;
10851;SDS011;5479;52.046;6.314;2023-03-23T01:48:28;8.30;;;4.23;;
10851;SDS011;5479;52.046;6.314;2023-03-23T01:51:01;7.73;;;4.63;;
10851;SDS011;5479;52.046;6.314;2023-03-23T01:53:33;7.27;;;4.37;;
10851;SDS011;5479;52.046;6.314;2023-03-23T01:56:06;5.90;;;3.90;;
10851;SDS011;5479;52.046;6.314;2023-03-23T01:58:38;7.43;;;4.40;;
10851;SDS011;5479;52.046;6.314;2023-03-23T02:01:07;6.43;;;4.00;;
10851;SDS011;5479;52.046;6.314;2023-03-23T02:03:39;5.93;;;3.70;;
10851;SDS011;5479;52.046;6.314;2023-03-23T02:06:11;6.73;;;4.07;;
10851;SDS011;5479;52.046;6.314;2023-03-23T02:08:41;6.33;;;4.20;;
10851;SDS011;5479;52.046;6.314;2023-03-23T02:11:14;7.20;;;4.10;;
10851;SDS011;5479;52.046;6.314;2023-03-23T02:13:43;7.33;;;4.10;;
10851;SDS011;5479;52.046;6.314;2023-03-23T02:16:13;7.10;;;4.00;;
10851;SDS011;5479;52.046;6.314;2023-03-23T02:18:51;6.10;;;3.60;;
10851;SDS011;5479;52.046;6.314;2023-03-23T02:25:02;5.27;;;3.60;;
10851;SDS011;5479;52.046;6.314;2023-03-23T02:27:58;5.60;;;3.73;;
10851;SDS011;5479;52.046;6.314;2023-03-23T02:31:02;7.23;;;3.97;;
10851;SDS011;5479;52.046;6.314;2023-03-23T02:36:26;6.43;;;4.43;;
10851;SDS011;5479;52.046;6.314;2023-03-23T02:39:00;7.93;;;5.00;;
10851;SDS011;5479;52.046;6.314;2023-03-23T02:41:33;6.63;;;4.50;;
10851;SDS011;5479;52.046;6.314;2023-03-23T02:44:07;7.90;;;4.90;;
10851;SDS011;5479;52.046;6.314;2023-03-23T02:46:36;6.90;;;4.70;;
10851;SDS011;5479;52.046;6.314;2023-03-23T02:49:06;8.00;;;4.70;;
10851;SDS011;5479;52.046;6.314;2023-03-23T02:51:37;7.63;;;4.67;;
10851;SDS011;5479;52.046;6.314;2023-03-23T02:54:06;7.17;;;4.53;;
10851;SDS011;5479;52.046;6.314;2023-03-23T02:56:36;6.60;;;4.30;;
10851;SDS011;5479;52.046;6.314;2023-03-23T02:59:05;6.13;;;4.10;;
10851;SDS011;5479;52.046;6.314;2023-03-23T03:01:49;6.77;;;4.30;;
10851;SDS011;5479;52.046;6.314;2023-03-23T03:04:23;6.13;;;4.17;;
10851;SDS011;5479;52.046;6.314;2023-03-23T03:09:55;5.67;;;4.00;;
10851;SDS011;5479;52.046;6.314;2023-03-23T03:12:29;6.50;;;4.13;;
10851;SDS011;5479;52.046;6.314;2023-03-23T03:15:06;6.87;;;3.67;;
10851;SDS011;5479;52.046;6.314;2023-03-23T03:17:41;7.27;;;4.20;;
10851;SDS011;5479;52.046;6.314;2023-03-23T03:20:17;5.80;;;3.90;;
10851;SDS011;5479;52.046;6.314;2023-03-23T03:22:46;7.07;;;3.93;;
10851;SDS011;5479;52.046;6.314;2023-03-23T03:25:14;5.30;;;3.60;;
10851;SDS011;5479;52.046;6.314;2023-03-23T03:27:44;5.97;;;3.90;;
10851;SDS011;5479;52.046;6.314;2023-03-23T03:30:15;5.90;;;4.00;;
10851;SDS011;5479;52.046;6.314;2023-03-23T03:32:48;6.00;;;3.83;;
10851;SDS011;5479;52.046;6.314;2023-03-23T03:35:21;6.03;;;4.23;;
10851;SDS011;5479;52.046;6.314;2023-03-23T03:37:50;6.00;;;3.70;;
10851;SDS011;5479;52.046;6.314;2023-03-23T03:40:19;7.83;;;3.97;;
10851;SDS011;5479;52.046;6.314;2023-03-23T03:42:49;7.00;;;4.00;;
10851;SDS011;5479;52.046;6.314;2023-03-23T03:45:18;6.73;;;4.23;;
10851;SDS011;5479;52.046;6.314;2023-03-23T03:47:47;5.40;;;3.63;;
10851;SDS011;5479;52.046;6.314;2023-03-23T03:50:14;5.77;;;3.67;;
10851;SDS011;5479;52.046;6.314;2023-03-23T03:52:44;6.73;;;3.80;;
10851;SDS011;5479;52.046;6.314;2023-03-23T03:55:12;6.10;;;3.80;;
10851;SDS011;5479;52.046;6.314;2023-03-23T03:57:42;6.40;;;3.87;;
10851;SDS011;5479;52.046;6.314;2023-03-23T04:00:10;5.47;;;3.37;;
10851;SDS011;5479;52.046;6.314;2023-03-23T04:02:41;5.80;;;3.73;;
10851;SDS011;5479;52.046;6.314;2023-03-23T04:05:10;6.63;;;3.80;;
10851;SDS011;5479;52.046;6.314;2023-03-23T04:07:38;4.93;;;3.43;;
10851;SDS011;5479;52.046;6.314;2023-03-23T04:10:10;6.53;;;3.90;;
10851;SDS011;5479;52.046;6.314;2023-03-23T04:12:39;5.97;;;4.07;;
10851;SDS011;5479;52.046;6.314;2023-03-23T04:15:07;5.77;;;3.53;;
10851;SDS011;5479;52.046;6.314;2023-03-23T04:17:36;6.27;;;4.17;;
10851;SDS011;5479;52.046;6.314;2023-03-23T04:20:04;7.23;;;4.10;;
10851;SDS011;5479;52.046;6.314;2023-03-23T04:22:39;5.13;;;3.67;;
10851;SDS011;5479;52.046;6.314;2023-03-23T04:25:12;5.70;;;3.53;;
10851;SDS011;5479;52.046;6.314;2023-03-23T04:27:41;5.97;;;3.90;;
10851;SDS011;5479;52.046;6.314;2023-03-23T04:30:12;6.07;;;3.87;;
10851;SDS011;5479;52.046;6.314;2023-03-23T04:32:41;7.17;;;3.70;;
10851;SDS011;5479;52.046;6.314;2023-03-23T04:35:10;6.40;;;3.73;;
10851;SDS011;5479;52.046;6.314;2023-03-23T04:37:40;6.37;;;3.80;;
10851;SDS011;5479;52.046;6.314;2023-03-23T04:40:09;5.47;;;4.00;;
10851;SDS011;5479;52.046;6.314;2023-03-23T04:42:41;6.50;;;4.00;;
10851;SDS011;5479;52.046;6.314;2023-03-23T04:45:12;5.63;;;3.90;;
10851;SDS011;5479;52.046;6.314;2023-03-23T04:47:42;6.30;;;4.13;;
10851;SDS011;5479;52.046;6.314;2023-03-23T04:50:19;6.17;;;3.73;;
10851;SDS011;5479;52.046;6.314;2023-03-23T04:52:50;6.23;;;3.90;;
10851;SDS011;5479;52.046;6.314;2023-03-23T04:55:21;5.57;;;3.87;;
10851;SDS011;5479;52.046;6.314;2023-03-23T04:57:49;7.17;;;4.17;;
10851;SDS011;5479;52.046;6.314;2023-03-23T05:00:18;5.60;;;3.80;;
10851;SDS011;5479;52.046;6.314;2023-03-23T05:02:47;5.37;;;3.70;;
10851;SDS011;5479;52.046;6.314;2023-03-23T05:05:18;6.83;;;4.07;;
10851;SDS011;5479;52.046;6.314;2023-03-23T05:07:47;6.43;;;3.63;;
10851;SDS011;5479;52.046;6.314;2023-03-23T05:10:16;5.90;;;3.50;;
10851;SDS011;5479;52.046;6.314;2023-03-23T05:12:46;5.90;;;3.57;;
10851;SDS011;5479;52.046;6.314;2023-03-23T05:15:14;5.67;;;3.60;;
10851;SDS011;5479;52.046;6.314;2023-03-23T05:17:43;8.00;;;4.03;;
10851;SDS011;5479;52.046;6.314;2023-03-23T05:20:12;5.63;;;3.77;;
10851;SDS011;5479;52.046;6.314;2023-03-23T05:22:44;6.47;;;4.30;;
10851;SDS011;5479;52.046;6.314;2023-03-23T05:25:14;8.20;;;4.03;;
10851;SDS011;5479;52.046;6.314;2023-03-23T05:27:46;6.17;;;3.47;;
10851;SDS011;5479;52.046;6.314;2023-03-23T05:30:19;9.77;;;4.00;;
10851;SDS011;5479;52.046;6.314;2023-03-23T05:32:47;6.17;;;3.47;;
10851;SDS011;5479;52.046;6.314;2023-03-23T05:35:17;6.10;;;3.37;;
10851;SDS011;5479;52.046;6.314;2023-03-23T05:37:46;6.73;;;3.30;;
10851;SDS011;5479;52.046;6.314;2023-03-23T05:40:14;7.50;;;3.20;;
10851;SDS011;5479;52.046;6.314;2023-03-23T05:42:42;6.80;;;3.10;;
10851;SDS011;5479;52.046;6.314;2023-03-23T05:45:13;6.23;;;2.87;;
10851;SDS011;5479;52.046;6.314;2023-03-23T05:47:41;6.73;;;2.83;;
10851;SDS011;5479;52.046;6.314;2023-03-23T05:50:09;8.20;;;3.03;;
10851;SDS011;5479;52.046;6.314;2023-03-23T05:52:39;5.63;;;2.80;;
10851;SDS011;5479;52.046;6.314;2023-03-23T05:55:08;6.27;;;2.90;;
10851;SDS011;5479;52.046;6.314;2023-03-23T05:57:36;7.63;;;2.90;;
10851;SDS011;5479;52.046;6.314;2023-03-23T06:00:05;5.50;;;2.70;;
10851;SDS011;5479;52.046;6.314;2023-03-23T06:02:47;8.43;;;3.10;;
10851;SDS011;5479;52.046;6.314;2023-03-23T06:05:17;8.10;;;2.77;;
10851;SDS011;5479;52.046;6.314;2023-03-23T06:07:46;8.03;;;2.40;;
10851;SDS011;5479;52.046;6.314;2023-03-23T06:10:14;5.00;;;2.50;;
10851;SDS011;5479;52.046;6.314;2023-03-23T06:12:42;8.07;;;2.70;;
10851;SDS011;5479;52.046;6.314;2023-03-23T06:15:11;8.20;;;2.60;;
10851;SDS011;5479;52.046;6.314;2023-03-23T06:17:39;6.97;;;2.57;;
10851;SDS011;5479;52.046;6.314;2023-03-23T06:20:09;6.23;;;2.50;;
10851;SDS011;5479;52.046;6.314;2023-03-23T06:22:38;7.07;;;2.20;;
10851;SDS011;5479;52.046;6.314;2023-03-23T06:25:08;6.63;;;2.70;;
10851;SDS011;5479;52.046;6.314;2023-03-23T06:27:39;5.73;;;2.43;;
10851;SDS011;5479;52.046;6.314;2023-03-23T06:30:07;6.47;;;2.40;;
10851;SDS011;5479;52.046;6.314;2023-03-23T06:32:36;7.13;;;2.73;;
10851;SDS011;5479;52.046;6.314;2023-03-23T06:35:05;4.90;;;2.40;;
10851;SDS011;5479;52.046;6.314;2023-03-23T06:37:37;9.23;;;2.63;;
10851;SDS011;5479;52.046;6.314;2023-03-23T06:40:06;5.70;;;2.27;;
10851;SDS011;5479;52.046;6.314;2023-03-23T06:42:34;5.73;;;2.20;;
10851;SDS011;5479;52.046;6.314;2023-03-23T06:45:03;10.13;;;2.40;;
10851;SDS011;5479;52.046;6.314;2023-03-23T06:47:34;9.13;;;2.70;;
10851;SDS011;5479;52.046;6.314;2023-03-23T06:50:01;6.87;;;2.50;;
10851;SDS011;5479;52.046;6.314;2023-03-23T06:52:30;6.40;;;2.33;;
10851;SDS011;5479;52.046;6.314;2023-03-23T06:54:59;7.07;;;2.40;;
10851;SDS011;5479;52.046;6.314;2023-03-23T06:57:28;7.40;;;2.20;;
10851;SDS011;5479;52.046;6.314;2023-03-23T06:59:56;5.43;;;2.40;;
10851;SDS011;5479;52.046;6.314;2023-03-23T07:02:24;7.87;;;2.30;;
10851;SDS011;5479;52.046;6.314;2023-03-23T07:04:52;6.30;;;2.33;;
10851;SDS011;5479;52.046;6.314;2023-03-23T07:07:21;6.83;;;2.13;;
10851;SDS011;5479;52.046;6.314;2023-03-23T07:09:50;6.50;;;2.20;;
10851;SDS011;5479;52.046;6.314;2023-03-23T07:12:19;7.30;;;2.70;;
10851;SDS011;5479;52.046;6.314;2023-03-23T07:14:48;6.57;;;2.73;;
10851;SDS011;5479;52.046;6.314;2023-03-23T07:17:16;5.57;;;2.40;;
10851;SDS011;5479;52.046;6.314;2023-03-23T07:19:44;5.97;;;2.30;;
10851;SDS011;5479;52.046;6.314;2023-03-23T07:22:12;7.87;;;2.70;;
10851;SDS011;5479;52.046;6.314;2023-03-23T07:24:40;6.87;;;2.53;;
10851;SDS011;5479;52.046;6.314;2023-03-23T07:27:08;7.13;;;3.00;;
10851;SDS011;5479;52.046;6.314;2023-03-23T07:29:38;6.10;;;2.43;;
10851;SDS011;5479;52.046;6.314;2023-03-23T07:32:08;6.70;;;2.60;;
10851;SDS011;5479;52.046;6.314;2023-03-23T07:34:38;7.27;;;2.93;;
10851;SDS011;5479;52.046;6.314;2023-03-23T07:37:07;5.30;;;2.83;;
10851;SDS011;5479;52.046;6.314;2023-03-23T07:39:35;10.27;;;2.77;;
10851;SDS011;5479;52.046;6.314;2023-03-23T07:42:03;8.77;;;2.80;;
10851;SDS011;5479;52.046;6.314;2023-03-23T07:44:33;9.30;;;3.37;;
10851;SDS011;5479;52.046;6.314;2023-03-23T07:47:03;6.90;;;2.60;;
10851;SDS011;5479;52.046;6.314;2023-03-23T07:49:31;7.50;;;2.60;;
10851;SDS011;5479;52.046;6.314;2023-03-23T07:52:00;7.63;;;3.00;;
10851;SDS011;5479;52.046;6.314;2023-03-23T07:54:29;7.17;;;2.87;;
10851;SDS011;5479;52.046;6.314;2023-03-23T07:56:58;7.07;;;2.23;;
10851;SDS011;5479;52.046;6.314;2023-03-23T07:59:27;6.17;;;2.20;;
10851;SDS011;5479;52.046;6.314;2023-03-23T08:01:55;6.77;;;2.50;;
10851;SDS011;5479;52.046;6.314;2023-03-23T08:04:26;6.37;;;2.43;;
10851;SDS011;5479;52.046;6.314;2023-03-23T08:06:54;6.17;;;1.97;;
10851;SDS011;5479;52.046;6.314;2023-03-23T08:09:22;5.80;;;2.10;;
10851;SDS011;5479;52.046;6.314;2023-03-23T08:11:51;6.63;;;2.30;;
10851;SDS011;5479;52.046;6.314;2023-03-23T08:14:19;3.97;;;1.70;;
10851;SDS011;5479;52.046;6.314;2023-03-23T08:16:47;6.97;;;2.10;;
10851;SDS011;5479;52.046;6.314;2023-03-23T08:19:15;5.43;;;1.80;;
10851;SDS011;5479;52.046;6.314;2023-03-23T08:21:44;7.33;;;2.17;;
10851;SDS011;5479;52.046;6.314;2023-03-23T08:24:12;3.70;;;1.90;;
10851;SDS011;5479;52.046;6.314;2023-03-23T08:26:40;4.20;;;1.87;;
10851;SDS011;5479;52.046;6.314;2023-03-23T08:29:09;7.03;;;2.20;;
10851;SDS011;5479;52.046;6.314;2023-03-23T08:31:37;5.10;;;2.17;;
10851;SDS011;5479;52.046;6.314;2023-03-23T08:34:05;4.90;;;2.50;;
10851;SDS011;5479;52.046;6.314;2023-03-23T08:36:34;4.90;;;2.50;;
10851;SDS011;5479;52.046;6.314;2023-03-23T08:39:05;6.63;;;2.30;;
10851;SDS011;5479;52.046;6.314;2023-03-23T08:41:34;6.37;;;2.37;;
10851;SDS011;5479;52.046;6.314;2023-03-23T08:44:04;6.37;;;2.60;;
10851;SDS011;5479;52.046;6.314;2023-03-23T08:46:34;6.63;;;2.47;;
10851;SDS011;5479;52.046;6.314;2023-03-23T08:49:03;7.13;;;2.60;;
10851;SDS011;5479;52.046;6.314;2023-03-23T08:51:32;7.07;;;2.83;;
10851;SDS011;5479;52.046;6.314;2023-03-23T08:54:02;8.23;;;2.63;;
10851;SDS011;5479;52.046;6.314;2023-03-23T08:56:33;8.70;;;2.90;;
10851;SDS011;5479;52.046;6.314;2023-03-23T08:59:02;6.87;;;2.33;;
10851;SDS011;5479;52.046;6.314;2023-03-23T09:01:30;8.07;;;3.17;;
10851;SDS011;5479;52.046;6.314;2023-03-23T09:03:58;6.33;;;2.50;;
10851;SDS011;5479;52.046;6.314;2023-03-23T09:06:26;5.87;;;2.60;;
10851;SDS011;5479;52.046;6.314;2023-03-23T09:08:54;7.07;;;2.30;;
10851;SDS011;5479;52.046;6.314;2023-03-23T09:11:22;6.23;;;2.70;;
10851;SDS011;5479;52.046;6.314;2023-03-23T09:13:52;6.43;;;2.20;;
10851;SDS011;5479;52.046;6.314;2023-03-23T09:16:20;6.67;;;2.50;;
10851;SDS011;5479;52.046;6.314;2023-03-23T09:18:49;5.70;;;2.23;;
10851;SDS011;5479;52.046;6.314;2023-03-23T09:21:17;4.10;;;1.80;;
10851;SDS011;5479;52.046;6.314;2023-03-23T09:23:45;4.73;;;1.90;;
10851;SDS011;5479;52.046;6.314;2023-03-23T09:26:14;5.27;;;2.20;;
10851;SDS011;5479;52.046;6.314;2023-03-23T09:28:42;5.10;;;2.07;;
10851;SDS011;5479;52.046;6.314;2023-03-23T09:31:13;4.57;;;1.87;;
10851;SDS011;5479;52.046;6.314;2023-03-23T09:33:41;3.53;;;1.70;;
10851;SDS011;5479;52.046;6.314;2023-03-23T09:36:10;4.40;;;1.63;;
10851;SDS011;5479;52.046;6.314;2023-03-23T09:38:40;3.53;;;1.70;;
10851;SDS011;5479;52.046;6.314;2023-03-23T09:41:14;4.33;;;2.00;;
10851;SDS011;5479;52.046;6.314;2023-03-23T09:44:05;3.63;;;1.70;;
10851;SDS011;5479;52.046;6.314;2023-03-23T09:46:45;3.10;;;1.50;;
10851;SDS011;5479;52.046;6.314;2023-03-23T09:49:23;2.57;;;1.50;;
10851;SDS011;5479;52.046;6.314;2023-03-23T09:51:57;3.93;;;1.60;;
10851;SDS011;5479;52.046;6.314;2023-03-23T09:54:30;3.10;;;1.27;;
10851;SDS011;5479;52.046;6.314;2023-03-23T09:57:03;4.53;;;1.77;;
10851;SDS011;5479;52.046;6.314;2023-03-23T09:59:34;5.20;;;1.60;;
10851;SDS011;5479;52.046;6.314;2023-03-23T10:02:11;4.57;;;1.60;;
10851;SDS011;5479;52.046;6.314;2023-03-23T10:04:43;3.40;;;1.50;;
10851;SDS011;5479;52.046;6.314;2023-03-23T10:07:14;4.77;;;1.63;;
10851;SDS011;5479;52.046;6.314;2023-03-23T10:09:44;5.30;;;1.80;;
10851;SDS011;5479;52.046;6.314;2023-03-23T10:12:18;6.47;;;2.20;;
10851;SDS011;5479;52.046;6.314;2023-03-23T10:15:01;4.97;;;1.80;;
10851;SDS011;5479;52.046;6.314;2023-03-23T10:17:38;5.82;;;2.10;;
10851;SDS011;5479;52.046;6.314;2023-03-23T10:20:30;4.70;;;2.03;;
10851;SDS011;5479;52.046;6.314;2023-03-23T10:23:08;7.20;;;2.40;;
10851;SDS011;5479;52.046;6.314;2023-03-23T10:25:41;5.80;;;2.28;;
10851;SDS011;5479;52.046;6.314;2023-03-23T10:28:11;6.00;;;2.00;;
10851;SDS011;5479;52.046;6.314;2023-03-23T10:30:41;7.60;;;2.40;;
10851;SDS011;5479;52.046;6.314;2023-03-23T10:33:15;5.55;;;2.25;;
10851;SDS011;5479;52.046;6.314;2023-03-23T10:35:48;6.97;;;2.60;;
10851;SDS011;5479;52.046;6.314;2023-03-23T10:38:25;6.82;;;2.45;;
10851;SDS011;5479;52.046;6.314;2023-03-23T10:40:59;8.52;;;2.58;;
10851;SDS011;5479;52.046;6.314;2023-03-23T10:43:29;8.75;;;3.15;;
10851;SDS011;5479;52.046;6.314;2023-03-23T10:45:59;7.55;;;2.90;;
10851;SDS011;5479;52.046;6.314;2023-03-23T10:48:33;9.57;;;2.83;;
10851;SDS011;5479;52.046;6.314;2023-03-23T10:51:12;11.15;;;3.10;;
10851;SDS011;5479;52.046;6.314;2023-03-23T10:53:44;10.80;;;2.50;;
10851;SDS011;5479;52.046;6.314;2023-03-23T10:56:20;8.30;;;2.95;;
10851;SDS011;5479;52.046;6.314;2023-03-23T10:58:50;9.50;;;3.17;;
10851;SDS011;5479;52.046;6.314;2023-03-23T11:01:20;6.93;;;2.38;;
10851;SDS011;5479;52.046;6.314;2023-03-23T11:03:58;7.25;;;2.50;;
10851;SDS011;5479;52.046;6.314;2023-03-23T11:06:29;9.25;;;2.83;;
10851;SDS011;5479;52.046;6.314;2023-03-23T11:09:03;8.32;;;2.60;;
10851;SDS011;5479;52.046;6.314;2023-03-23T11:11:41;7.03;;;2.60;;
10851;SDS011;5479;52.046;6.314;2023-03-23T11:14:15;7.80;;;2.70;;
10851;SDS011;5479;52.046;6.314;2023-03-23T11:16:45;9.40;;;2.88;;
10851;SDS011;5479;52.046;6.314;2023-03-23T11:19:24;7.38;;;2.67;;
10851;SDS011;5479;52.046;6.314;2023-03-23T11:21:54;6.90;;;2.50;;
10851;SDS011;5479;52.046;6.314;2023-03-23T11:24:26;7.18;;;2.60;;
10851;SDS011;5479;52.046;6.314;2023-03-23T11:26:55;6.53;;;2.28;;
10851;SDS011;5479;52.046;6.314;2023-03-23T11:29:25;8.00;;;2.40;;
10851;SDS011;5479;52.046;6.314;2023-03-23T11:32:01;8.20;;;2.78;;
10851;SDS011;5479;52.046;6.314;2023-03-23T11:34:36;6.95;;;2.40;;
10851;SDS011;5479;52.046;6.314;2023-03-23T11:37:09;6.45;;;2.10;;
10851;SDS011;5479;52.046;6.314;2023-03-23T11:39:46;6.50;;;2.40;;
10851;SDS011;5479;52.046;6.314;2023-03-23T11:42:18;7.45;;;2.53;;
10851;SDS011;5479;52.046;6.314;2023-03-23T11:44:54;8.27;;;2.97;;
10851;SDS011;5479;52.046;6.314;2023-03-23T11:47:41;8.90;;;3.05;;
10851;SDS011;5479;52.046;6.314;2023-03-23T11:50:17;8.82;;;2.40;;
10851;SDS011;5479;52.046;6.314;2023-03-23T11:52:49;6.07;;;2.20;;
10851;SDS011;5479;52.046;6.314;2023-03-23T11:55:22;7.43;;;2.45;;
10851;SDS011;5479;52.046;6.314;2023-03-23T11:57:52;7.40;;;2.50;;
10851;SDS011;5479;52.046;6.314;2023-03-23T12:00:23;6.38;;;2.47;;
10851;SDS011;5479;52.046;6.314;2023-03-23T12:06:02;6.30;;;2.38;;
10851;SDS011;5479;52.046;6.314;2023-03-23T12:08:38;7.40;;;2.50;;
10851;SDS011;5479;52.046;6.314;2023-03-23T12:11:17;6.75;;;2.40;;
10851;SDS011;5479;52.046;6.314;2023-03-23T12:14:00;7.63;;;2.55;;
10851;SDS011;5479;52.046;6.314;2023-03-23T12:16:43;5.60;;;2.40;;
10851;SDS011;5479;52.046;6.314;2023-03-23T12:19:18;5.72;;;2.25;;
10851;SDS011;5479;52.046;6.314;2023-03-23T12:21:58;8.57;;;2.63;;
10851;SDS011;5479;52.046;6.314;2023-03-23T12:24:40;8.20;;;2.72;;
10851;SDS011;5479;52.046;6.314;2023-03-23T12:27:18;5.18;;;2.33;;
10851;SDS011;5479;52.046;6.314;2023-03-23T12:29:56;8.00;;;2.53;;
10851;SDS011;5479;52.046;6.314;2023-03-23T12:32:50;5.43;;;2.45;;
10851;SDS011;5479;52.046;6.314;2023-03-23T12:35:34;6.17;;;2.37;;
10851;SDS011;5479;52.046;6.314;2023-03-23T12:38:23;9.83;;;3.57;;
10851;SDS011;5479;52.046;6.314;2023-03-23T12:41:07;7.97;;;3.20;;
10851;SDS011;5479;52.046;6.314;2023-03-23T12:43:47;8.57;;;3.67;;
10851;SDS011;5479;52.046;6.314;2023-03-23T12:46:22;6.17;;;3.67;;
10851;SDS011;5479;52.046;6.314;2023-03-23T12:49:05;6.57;;;3.57;;
10851;SDS011;5479;52.046;6.314;2023-03-23T12:51:43;7.27;;;3.43;;
10851;SDS011;5479;52.046;6.314;2023-03-23T12:54:21;7.77;;;3.53;;
10851;SDS011;5479;52.046;6.314;2023-03-23T12:56:56;6.47;;;3.10;;
10851;SDS011;5479;52.046;6.314;2023-03-23T12:59:32;8.33;;;3.30;;
10851;SDS011;5479;52.046;6.314;2023-03-23T13:02:18;7.40;;;2.87;;
10851;SDS011;5479;52.046;6.314;2023-03-23T13:04:50;7.03;;;3.17;;
10851;SDS011;5479;52.046;6.314;2023-03-23T13:07:25;7.97;;;2.70;;
10851;SDS011;5479;52.046;6.314;2023-03-23T13:10:01;5.77;;;2.57;;
10851;SDS011;5479;52.046;6.314;2023-03-23T13:12:32;6.82;;;2.70;;
10851;SDS011;5479;52.046;6.314;2023-03-23T13:15:10;5.93;;;2.30;;
10851;SDS011;5479;52.046;6.314;2023-03-23T13:17:49;8.10;;;2.40;;
10851;SDS011;5479;52.046;6.314;2023-03-23T13:20:34;5.93;;;2.23;;
10851;SDS011;5479;52.046;6.314;2023-03-23T13:23:09;6.00;;;2.30;;
10851;SDS011;5479;52.046;6.314;2023-03-23T13:25:48;7.10;;;2.40;;
10851;SDS011;5479;52.046;6.314;2023-03-23T13:28:20;5.23;;;2.43;;
10851;SDS011;5479;52.046;6.314;2023-03-23T13:30:53;5.27;;;2.60;;
10851;SDS011;5479;52.046;6.314;2023-03-23T13:33:32;4.93;;;2.00;;
10851;SDS011;5479;52.046;6.314;2023-03-23T13:36:07;4.73;;;2.00;;
10851;SDS011;5479;52.046;6.314;2023-03-23T13:38:37;5.07;;;2.17;;
10851;SDS011;5479;52.046;6.314;2023-03-23T13:41:09;7.53;;;2.50;;
10851;SDS011;5479;52.046;6.314;2023-03-23T13:43:40;10.57;;;3.57;;
10851;SDS011;5479;52.046;6.314;2023-03-23T13:46:12;10.43;;;3.20;;
10851;SDS011;5479;52.046;6.314;2023-03-23T13:49:02;7.07;;;2.17;;
10851;SDS011;5479;52.046;6.314;2023-03-23T13:51:52;7.43;;;2.77;;
10851;SDS011;5479;52.046;6.314;2023-03-23T13:54:30;8.17;;;2.83;;
10851;SDS011;5479;52.046;6.314;2023-03-23T13:57:20;6.40;;;2.70;;
10851;SDS011;5479;52.046;6.314;2023-03-23T13:59:56;6.33;;;2.90;;
10851;SDS011;5479;52.046;6.314;2023-03-23T14:02:31;6.77;;;2.93;;
10851;SDS011;5479;52.046;6.314;2023-03-23T14:05:23;6.53;;;2.90;;
10851;SDS011;5479;52.046;6.314;2023-03-23T14:07:58;7.20;;;2.93;;
10851;SDS011;5479;52.046;6.314;2023-03-23T14:10:32;5.87;;;2.73;;
10851;SDS011;5479;52.046;6.314;2023-03-23T14:13:04;8.00;;;3.00;;
10851;SDS011;5479;52.046;6.314;2023-03-23T14:15:40;8.70;;;3.50;;
10851;SDS011;5479;52.046;6.314;2023-03-23T14:18:14;7.90;;;3.20;;
10851;SDS011;5479;52.046;6.314;2023-03-23T14:20:45;6.63;;;3.10;;
10851;SDS011;5479;52.046;6.314;2023-03-23T14:23:15;5.73;;;2.73;;
10851;SDS011;5479;52.046;6.314;2023-03-23T14:25:45;7.40;;;3.20;;
10851;SDS011;5479;52.046;6.314;2023-03-23T14:28:26;6.27;;;3.10;;
10851;SDS011;5479;52.046;6.314;2023-03-23T14:30:55;6.43;;;3.10;;
10851;SDS011;5479;52.046;6.314;2023-03-23T14:33:24;5.63;;;3.30;;
10851;SDS011;5479;52.046;6.314;2023-03-23T14:35:54;7.17;;;3.60;;
10851;SDS011;5479;52.046;6.314;2023-03-23T14:38:25;7.33;;;3.33;;
10851;SDS011;5479;52.046;6.314;2023-03-23T14:41:02;6.37;;;3.00;;
10851;SDS011;5479;52.046;6.314;2023-03-23T14:43:33;6.93;;;3.30;;
10851;SDS011;5479;52.046;6.314;2023-03-23T14:46:05;7.43;;;3.10;;
10851;SDS011;5479;52.046;6.314;2023-03-23T14:48:35;7.57;;;3.13;;
10851;SDS011;5479;52.046;6.314;2023-03-23T14:51:03;6.77;;;3.50;;
10851;SDS011;5479;52.046;6.314;2023-03-23T14:53:35;7.07;;;3.10;;
10851;SDS011;5479;52.046;6.314;2023-03-23T14:56:09;6.90;;;3.10;;
10851;SDS011;5479;52.046;6.314;2023-03-23T14:58:42;7.83;;;3.10;;
10851;SDS011;5479;52.046;6.314;2023-03-23T15:01:12;5.87;;;2.87;;
10851;SDS011;5479;52.046;6.314;2023-03-23T15:03:44;8.90;;;3.60;;
10851;SDS011;5479;52.046;6.314;2023-03-23T15:06:20;6.87;;;2.90;;
10851;SDS011;5479;52.046;6.314;2023-03-23T15:08:50;7.27;;;3.13;;
10851;SDS011;5479;52.046;6.314;2023-03-23T15:11:22;7.27;;;3.60;;
10851;SDS011;5479;52.046;6.314;2023-03-23T15:13:56;6.50;;;3.33;;
10851;SDS011;5479;52.046;6.314;2023-03-23T15:16:30;7.63;;;3.40;;
10851;SDS011;5479;52.046;6.314;2023-03-23T15:19:00;7.93;;;3.40;;
10851;SDS011;5479;52.046;6.314;2023-03-23T15:21:31;8.43;;;3.10;;
10851;SDS011;5479;52.046;6.314;2023-03-23T15:24:02;7.53;;;3.43;;
10851;SDS011;5479;52.046;6.314;2023-03-23T15:26:46;5.93;;;2.90;;
10851;SDS011;5479;52.046;6.314;2023-03-23T15:29:19;7.27;;;2.90;;
10851;SDS011;5479;52.046;6.314;2023-03-23T15:31:50;6.60;;;3.00;;
10851;SDS011;5479;52.046;6.314;2023-03-23T15:34:24;7.47;;;3.10;;
10851;SDS011;5479;52.046;6.314;2023-03-23T15:36:58;7.57;;;3.00;;
10851;SDS011;5479;52.046;6.314;2023-03-23T15:39:30;8.37;;;2.63;;
10851;SDS011;5479;52.046;6.314;2023-03-23T15:41:59;8.20;;;2.80;;